METAR & TAF Report
Available data for CYAM from the past 6 hours
SAULT STE MARIE, ON
Metar
CYAM 191400Z 09007KT 15SM FEW060 SCT120 SCT210 16/11 A3010 RMK SC1AC2CI1 SLP196 DENSITY ALT 800FT

14:00 UTC

Wind: 90° 7kt

Visibility: 15 SM

Sky: FEW 6000 ft

Temp: 16 deg C / 60.8 deg F

Dewpoint: 11 deg C / 51.8 deg F

Pressure: 30.1 inHg

TAF
TAF CYAM 191343Z 1914/2002 09007KT P6SM BKN100 BECMG 1914/1916 11010KT RMK NXT FCST BY 192000Z
NOTAM

Click here for NOTAMs.